Airfield :
LOGIN :

Register | Disclaimer

   EN    FR    IT 

 










Legend :    VFR   Marginal VFR   IFR   Intensive IFR   Very Intensive IFR
Visi :
Ceiling :
>= 8 km
>= 3000ft
5 to 8 km
1000 to 3000 ft
1500m to 5 km
500 to 1000 ft
800 to 1500m
200 to 500 ft
< 800m
< 200 ft
Symbols :   Thunderstorms  Fog  Heavy snow  Heavy precipitations  Wind > 20 kt
SIGMETs :     Misc.  Thunderstorms  Icing  Turbulence  Mountain Waves  Volcanic Ashes






- Airport Elevation : 436 ft
- IATA code : BTS


LZIB - Bratislava

CURRENT METAR :
  • 021000Z 31013KT 9999 FEW036 23/13 Q1023 NOSIG

EXPIRED METARs :
  • 020930Z 32015KT 9999 FEW035 22/13 Q1023 NOSIG
  • 020900Z 32015KT 9999 FEW033 22/13 Q1024 NOSIG
  • 020830Z 32015KT 9999 FEW033 21/13 Q1024 NOSIG
  • 012200Z 32014G27KT 270V020 9999 FEW017 18/14 Q1018 NOSIG
  • 020800Z 31015KT 9999 FEW029 20/12 Q1024 NOSIG
  • 020730Z 31014KT 9999 FEW027 20/12 Q1024 NOSIG

TAF TAF LZIB
Valid from the 02 at 06:00 until the 03 at 06:00 UTC


020515Z 0206/0306 32012KT 9999 SCT025
BECMG 0209/0211 CAVOK
BECMG 0220/0222 30004KT



MET'MAP, your aeronautical weather chart ! - Copyright ORBIFLY December 2007 - Disclaimer

ORBIFLY MET'MAP TEAM :

Programming & Development : Alexandra Zaïnal
Original concept : Baudouin d'Aumeries
Technical & hardware support : Manuel Goepfert
Assistance : Marc-Olivier Méhu




SOURCES & CREDITS :

   NOAA